createdAt,value
2016-08-16T00:00:06.254Z,15.8
2016-08-16T00:00:16.991Z,15.8
2016-08-16T00:00:26.992Z,15.8
2016-08-16T00:00:36.992Z,15.8
2016-08-16T00:00:46.258Z,15.8
2016-08-16T00:00:56.270Z,15.8
2016-08-16T00:01:07.000Z,15.8
2016-08-16T00:01:17.013Z,15.7
2016-08-16T00:01:27.009Z,15.8
2016-08-16T00:01:37.016Z,15.8
2016-08-16T00:01:47.015Z,15.7
2016-08-16T00:01:57.018Z,15.7
2016-08-16T00:02:07.030Z,15.7
2016-08-16T00:02:17.022Z,15.7
2016-08-16T00:02:27.036Z,15.7
2016-08-16T00:02:37.028Z,15.7
2016-08-16T00:02:46.296Z,15.7
2016-08-16T00:02:57.041Z,15.7
2016-08-16T00:03:07.041Z,15.7
2016-08-16T00:03:17.044Z,15.7
2016-08-16T00:03:27.047Z,15.7
2016-08-16T00:03:37.052Z,15.7
2016-08-16T00:03:47.054Z,15.7
2016-08-16T00:03:57.056Z,15.7
2016-08-16T00:04:07.059Z,15.7
2016-08-16T00:04:16.324Z,15.7
2016-08-16T00:04:27.063Z,15.7
2016-08-16T00:04:37.074Z,15.7
2016-08-16T00:04:47.071Z,15.7
2016-08-16T00:04:57.076Z,15.7
2016-08-16T00:05:07.084Z,15.7
2016-08-16T00:05:17.081Z,15.7
2016-08-16T00:05:27.087Z,15.7
2016-08-16T00:05:37.091Z,15.7
2016-08-16T00:05:47.096Z,15.7
2016-08-16T00:05:57.097Z,15.7
2016-08-16T00:06:07.099Z,15.7
2016-08-16T00:06:17.102Z,15.7
2016-08-16T00:06:27.100Z,15.7
2016-08-16T00:06:37.107Z,15.7
2016-08-16T00:06:47.109Z,15.7
2016-08-16T00:06:57.115Z,15.7
2016-08-16T00:07:07.118Z,15.7
2016-08-16T00:07:17.125Z,15.7
2016-08-16T00:07:27.128Z,15.7
2016-08-16T00:07:37.123Z,15.7
2016-08-16T00:07:47.135Z,15.7
2016-08-16T00:07:57.130Z,15.7
2016-08-16T00:08:06.404Z,15.7
2016-08-16T00:08:17.136Z,15.7
2016-08-16T00:08:27.141Z,15.7
2016-08-16T00:08:37.147Z,15.7
2016-08-16T00:08:47.146Z,15.7
2016-08-16T00:08:57.158Z,15.7
2016-08-16T00:09:07.156Z,15.6
2016-08-16T00:09:17.162Z,15.6
2016-08-16T00:09:27.162Z,15.6
2016-08-16T00:09:37.166Z,15.6
2016-08-16T00:09:47.170Z,15.6
2016-08-16T00:09:57.170Z,15.6
2016-08-16T00:10:07.176Z,15.6
2016-08-16T00:10:17.176Z,15.6
2016-08-16T00:10:27.183Z,15.6
2016-08-16T00:10:37.180Z,15.6
2016-08-16T00:10:47.184Z,15.6
2016-08-16T00:10:57.190Z,15.6
2016-08-16T00:11:07.187Z,15.6
2016-08-16T00:11:17.191Z,15.6
2016-08-16T00:11:27.204Z,15.6
2016-08-16T00:11:37.212Z,15.6
2016-08-16T00:11:47.207Z,15.6
2016-08-16T00:11:57.211Z,15.6
2016-08-16T00:12:07.212Z,15.6
2016-08-16T00:12:17.223Z,15.6
2016-08-16T00:12:26.478Z,15.6
2016-08-16T00:12:37.223Z,15.6
2016-08-16T00:12:47.228Z,15.6
2016-08-16T00:12:57.229Z,15.6
2016-08-16T00:13:07.233Z,15.6
2016-08-16T00:13:17.232Z,15.6
2016-08-16T00:13:27.242Z,15.6
2016-08-16T00:13:37.237Z,15.6
2016-08-16T00:13:47.241Z,15.6
2016-08-16T00:13:57.257Z,15.6
2016-08-16T00:14:07.261Z,15.6
2016-08-16T00:14:17.254Z,15.6
2016-08-16T00:14:27.262Z,15.6
2016-08-16T00:14:37.262Z,15.6
2016-08-16T00:14:47.263Z,15.6
2016-08-16T00:14:57.264Z,15.6
2016-08-16T00:15:07.274Z,15.6
2016-08-16T00:15:17.270Z,15.6
2016-08-16T00:15:27.273Z,15.6
2016-08-16T00:15:37.276Z,15.6
2016-08-16T00:15:46.544Z,15.6
2016-08-16T00:15:57.285Z,15.6
2016-08-16T00:16:07.292Z,15.6
2016-08-16T00:16:17.295Z,15.6
2016-08-16T00:16:27.293Z,15.6
2016-08-16T00:16:37.296Z,15.6
2016-08-16T00:16:47.299Z,15.6
2016-08-16T00:16:57.305Z,15.6
2016-08-16T00:17:07.307Z,15.6
2016-08-16T00:17:17.309Z,15.6
2016-08-16T00:17:27.312Z,15.6
2016-08-16T00:17:37.318Z,15.6
2016-08-16T00:17:47.318Z,15.6
2016-08-16T00:17:57.321Z,15.6
2016-08-16T00:18:07.326Z,15.6
2016-08-16T00:18:17.330Z,15.6
2016-08-16T00:18:26.605Z,15.6
2016-08-16T00:18:37.335Z,15.5
2016-08-16T00:18:47.339Z,15.5
2016-08-16T00:18:57.344Z,15.5
2016-08-16T00:19:07.345Z,15.5
2016-08-16T00:19:16.619Z,15.5
2016-08-16T00:19:27.360Z,15.5
2016-08-16T00:19:37.353Z,15.5
2016-08-16T00:19:47.357Z,15.5
2016-08-16T00:19:57.361Z,15.5
2016-08-16T00:20:07.362Z,15.5
2016-08-16T00:20:17.372Z,15.5
2016-08-16T00:20:27.369Z,15.5
2016-08-16T00:20:37.371Z,15.5
2016-08-16T00:20:47.372Z,15.5
2016-08-16T00:20:57.380Z,15.5
2016-08-16T00:21:07.384Z,15.5
2016-08-16T00:21:17.387Z,15.5
2016-08-16T00:21:27.393Z,15.5
2016-08-16T00:21:37.393Z,15.5
2016-08-16T00:21:47.394Z,15.5
2016-08-16T00:21:57.396Z,15.5
2016-08-16T00:22:07.400Z,15.5
2016-08-16T00:22:17.405Z,15.5
2016-08-16T00:22:27.407Z,15.5
2016-08-16T00:22:37.410Z,15.5
2016-08-16T00:22:46.675Z,15.5
2016-08-16T00:22:57.417Z,15.5
2016-08-16T00:23:06.681Z,15.5
2016-08-16T00:23:17.433Z,15.5
2016-08-16T00:23:27.425Z,15.5
2016-08-16T00:23:37.429Z,15.5
2016-08-16T00:23:47.434Z,15.5
2016-08-16T00:23:57.436Z,15.5
2016-08-16T00:24:07.437Z,15.5
2016-08-16T00:24:17.443Z,15.5
2016-08-16T00:24:27.448Z,15.5
2016-08-16T00:24:37.451Z,15.5
2016-08-16T00:24:47.452Z,15.5
2016-08-16T00:24:57.453Z,15.5
2016-08-16T00:25:07.458Z,15.5
2016-08-16T00:25:17.461Z,15.5
2016-08-16T00:25:27.462Z,15.5
2016-08-16T00:25:37.466Z,15.5
2016-08-16T00:25:47.471Z,15.5
2016-08-16T00:25:57.482Z,15.5
2016-08-16T00:26:07.472Z,15.5
2016-08-16T00:26:17.476Z,15.5
2016-08-16T00:26:27.495Z,15.5
2016-08-16T00:26:37.486Z,15.5
2016-08-16T00:26:47.489Z,15.5
2016-08-16T00:26:56.758Z,15.5
2016-08-16T00:27:06.764Z,15.5
2016-08-16T00:27:17.497Z,15.5
2016-08-16T00:27:27.500Z,15.5
2016-08-16T00:27:37.506Z,15.5
2016-08-16T00:27:46.774Z,15.5
2016-08-16T00:27:57.511Z,15.5
2016-08-16T00:28:07.516Z,15.5
2016-08-16T00:28:16.793Z,15.5
2016-08-16T00:28:27.520Z,15.5
2016-08-16T00:28:37.526Z,15.5
2016-08-16T00:28:47.526Z,15.5
2016-08-16T00:28:57.530Z,15.5
2016-08-16T00:29:07.535Z,15.5
2016-08-16T00:29:17.537Z,15.5
2016-08-16T00:29:26.812Z,15.5
2016-08-16T00:29:37.538Z,15.5
2016-08-16T00:29:47.543Z,15.5
2016-08-16T00:29:57.546Z,15.5
2016-08-16T00:30:07.548Z,15.5
2016-08-16T00:30:17.556Z,15.5
2016-08-16T00:30:27.557Z,15.5
2016-08-16T00:30:37.566Z,15.5
2016-08-16T00:30:46.833Z,15.5
2016-08-16T00:30:57.573Z,15.4
2016-08-16T00:31:07.573Z,15.4
2016-08-16T00:31:17.574Z,15.4
2016-08-16T00:31:27.577Z,15.4
2016-08-16T00:31:37.579Z,15.4
2016-08-16T00:31:47.584Z,15.4
2016-08-16T00:31:57.585Z,15.4
2016-08-16T00:32:07.589Z,15.4
2016-08-16T00:32:17.591Z,15.4
2016-08-16T00:32:27.597Z,15.4
2016-08-16T00:32:37.598Z,15.4
2016-08-16T00:32:47.599Z,15.4
2016-08-16T00:32:57.607Z,15.4
2016-08-16T00:33:07.610Z,15.4
2016-08-16T00:33:17.608Z,15.4
2016-08-16T00:33:27.614Z,15.4
2016-08-16T00:33:37.618Z,15.4
2016-08-16T00:33:47.622Z,15.4
2016-08-16T00:33:57.629Z,15.4
2016-08-16T00:34:07.629Z,15.4
2016-08-16T00:34:17.629Z,15.4
2016-08-16T00:34:27.636Z,15.4
2016-08-16T00:34:37.637Z,15.4
2016-08-16T00:34:47.640Z,15.4
2016-08-16T00:34:57.643Z,15.4
2016-08-16T00:35:07.648Z,15.4
2016-08-16T00:35:17.650Z,15.4
2016-08-16T00:35:27.652Z,15.4
2016-08-16T00:35:37.656Z,15.4
2016-08-16T00:35:47.661Z,15.4
2016-08-16T00:35:56.933Z,15.4
2016-08-16T00:36:07.663Z,15.4
2016-08-16T00:36:16.931Z,15.4
2016-08-16T00:36:27.670Z,15.4
2016-08-16T00:36:37.672Z,15.4
2016-08-16T00:36:47.678Z,15.4
2016-08-16T00:36:57.682Z,15.4
2016-08-16T00:37:06.951Z,15.4
2016-08-16T00:37:17.689Z,15.4
2016-08-16T00:37:27.694Z,15.4
2016-08-16T00:37:37.692Z,15.4
2016-08-16T00:37:47.700Z,15.4
2016-08-16T00:37:56.963Z,15.4
2016-08-16T00:38:07.703Z,15.4
2016-08-16T00:38:17.711Z,15.4
2016-08-16T00:38:27.709Z,15.4
2016-08-16T00:38:37.713Z,15.4
2016-08-16T00:38:47.714Z,15.4
2016-08-16T00:38:57.717Z,15.4
2016-08-16T00:39:07.722Z,15.4
2016-08-16T00:39:17.723Z,15.4
2016-08-16T00:39:27.724Z,15.4
2016-08-16T00:39:37.733Z,15.4
2016-08-16T00:39:47.732Z,15.4
2016-08-16T00:39:57.739Z,15.4
2016-08-16T00:40:07.743Z,15.4
2016-08-16T00:40:17.741Z,15.4
2016-08-16T00:40:27.748Z,15.4
2016-08-16T00:40:37.747Z,15.4
2016-08-16T00:40:47.752Z,15.4
2016-08-16T00:40:57.756Z,15.4
2016-08-16T00:41:07.763Z,15.4
2016-08-16T00:41:17.763Z,15.4
2016-08-16T00:41:27.025Z,15.4
2016-08-16T00:41:37.768Z,15.4
2016-08-16T00:41:47.773Z,15.4
2016-08-16T00:41:57.778Z,15.4
2016-08-16T00:42:07.776Z,15.4
2016-08-16T00:42:17.051Z,15.4
2016-08-16T00:42:27.788Z,15.4
2016-08-16T00:42:37.790Z,15.4
2016-08-16T00:42:47.793Z,15.4
2016-08-16T00:42:57.795Z,15.4
2016-08-16T00:43:07.801Z,15.4
2016-08-16T00:43:17.801Z,15.4
2016-08-16T00:43:27.801Z,15.4
2016-08-16T00:43:37.806Z,15.4
2016-08-16T00:43:47.810Z,15.4
2016-08-16T00:43:57.813Z,15.4
2016-08-16T00:44:07.815Z,15.4
2016-08-16T00:44:17.824Z,15.4
2016-08-16T00:44:27.817Z,15.4
2016-08-16T00:44:37.826Z,15.4
2016-08-16T00:44:47.834Z,15.4
2016-08-16T00:44:57.094Z,15.4
2016-08-16T00:45:07.109Z,15.4
2016-08-16T00:45:17.886Z,15.4
2016-08-16T00:45:27.841Z,15.4
2016-08-16T00:45:37.840Z,15.4
2016-08-16T00:45:47.846Z,15.4
2016-08-16T00:45:57.852Z,15.4
2016-08-16T00:46:07.852Z,15.4
2016-08-16T00:46:17.856Z,15.4
2016-08-16T00:46:27.862Z,15.4
2016-08-16T00:46:37.861Z,15.4
2016-08-16T00:46:47.884Z,15.4
2016-08-16T00:46:57.874Z,15.4
2016-08-16T00:47:07.871Z,15.3
2016-08-16T00:47:17.885Z,15.3
2016-08-16T00:47:27.881Z,15.4
2016-08-16T00:47:37.880Z,15.3
2016-08-16T00:47:47.887Z,15.3
2016-08-16T00:47:57.889Z,15.3
2016-08-16T00:48:07.889Z,15.3
2016-08-16T00:48:17.893Z,15.3
2016-08-16T00:48:27.165Z,15.3
2016-08-16T00:48:37.899Z,15.3
2016-08-16T00:48:47.902Z,15.3
2016-08-16T00:48:57.904Z,15.3
2016-08-16T00:49:07.905Z,15.3
2016-08-16T00:49:17.911Z,15.3
2016-08-16T00:49:27.917Z,15.3
2016-08-16T00:49:37.946Z,15.3
2016-08-16T00:49:47.922Z,15.3
2016-08-16T00:49:57.930Z,15.3
2016-08-16T00:50:07.926Z,15.3
2016-08-16T00:50:17.929Z,15.3
2016-08-16T00:50:27.945Z,15.3
2016-08-16T00:50:37.936Z,15.3
2016-08-16T00:50:47.943Z,15.3
2016-08-16T00:50:57.950Z,15.3
2016-08-16T00:51:07.949Z,15.3
2016-08-16T00:51:17.949Z,15.3
2016-08-16T00:51:27.954Z,15.3
2016-08-16T00:51:37.958Z,15.3
2016-08-16T00:51:47.960Z,15.3
2016-08-16T00:51:57.974Z,15.3
2016-08-16T00:52:07.238Z,15.3
2016-08-16T00:52:17.972Z,15.3
2016-08-16T00:52:27.970Z,15.3
2016-08-16T00:52:37.974Z,15.3
2016-08-16T00:52:47.977Z,15.3
2016-08-16T00:52:57.987Z,15.3
2016-08-16T00:53:07.981Z,15.3
2016-08-16T00:53:17.983Z,15.3
2016-08-16T00:53:27.989Z,15.3
2016-08-16T00:53:37.991Z,15.3
2016-08-16T00:53:47.996Z,15.3
2016-08-16T00:53:58.000Z,15.3
2016-08-16T00:54:07.998Z,15.3
2016-08-16T00:54:18.014Z,15.3
2016-08-16T00:54:27.286Z,15.3
2016-08-16T00:54:38.018Z,15.3
2016-08-16T00:54:48.021Z,15.3
2016-08-16T00:54:58.024Z,15.3
2016-08-16T00:55:08.022Z,15.3
2016-08-16T00:55:18.023Z,15.3
2016-08-16T00:55:28.036Z,15.3
2016-08-16T00:55:37.295Z,15.3
2016-08-16T00:55:48.033Z,15.3
2016-08-16T00:55:57.309Z,15.3
2016-08-16T00:56:08.038Z,15.2
2016-08-16T00:56:18.047Z,15.2
2016-08-16T00:56:28.045Z,15.2
2016-08-16T00:56:38.061Z,15.2
2016-08-16T00:56:48.051Z,15.2
2016-08-16T00:56:58.057Z,15.2
2016-08-16T00:57:08.059Z,15.2
2016-08-16T00:57:18.063Z,15.2
2016-08-16T00:57:28.065Z,15.2
2016-08-16T00:57:38.069Z,15.2
2016-08-16T00:57:48.071Z,15.2
2016-08-16T00:57:58.077Z,15.2
2016-08-16T00:58:08.080Z,15.2
2016-08-16T00:58:18.080Z,15.2
2016-08-16T00:58:28.089Z,15.2
2016-08-16T00:58:37.349Z,15.2
2016-08-16T00:58:48.090Z,15.2
2016-08-16T00:58:58.097Z,15.2
2016-08-16T00:59:08.092Z,15.2
2016-08-16T00:59:18.100Z,15.2
2016-08-16T00:59:28.104Z,15.2
2016-08-16T00:59:38.105Z,15.2
2016-08-16T00:59:48.116Z,15.2
2016-08-16T00:59:58.116Z,15.2
2016-08-16T01:00:08.113Z,15.2
2016-08-16T01:00:18.120Z,15.2
2016-08-16T01:00:28.125Z,15.2
2016-08-16T01:00:38.123Z,15.2
2016-08-16T01:00:47.392Z,15.2
2016-08-16T01:00:58.132Z,15.2
2016-08-16T01:01:07.401Z,15.2
2016-08-16T01:01:18.134Z,15.2
2016-08-16T01:01:28.141Z,15.2
2016-08-16T01:01:38.147Z,15.2
2016-08-16T01:01:48.161Z,15.2
2016-08-16T01:01:58.149Z,15.2
2016-08-16T01:02:08.153Z,15.2
2016-08-16T01:02:18.158Z,15.2
2016-08-16T01:02:28.157Z,15.2
2016-08-16T01:02:38.165Z,15.2
2016-08-16T01:02:48.167Z,15.2
2016-08-16T01:02:58.169Z,15.2
2016-08-16T01:03:08.172Z,15.2
2016-08-16T01:03:18.172Z,15.2
2016-08-16T01:03:27.455Z,15.1
2016-08-16T01:03:38.184Z,15.1
2016-08-16T01:03:48.184Z,15.1
2016-08-16T01:03:58.188Z,15.1
2016-08-16T01:04:08.199Z,15.1
2016-08-16T01:04:18.194Z,15.1
2016-08-16T01:04:28.206Z,15.1
2016-08-16T01:04:38.196Z,15.1
2016-08-16T01:04:48.203Z,15.1
2016-08-16T01:04:58.206Z,15.1
2016-08-16T01:05:08.207Z,15.1
2016-08-16T01:05:18.216Z,15.1
2016-08-16T01:05:28.214Z,15.1
2016-08-16T01:05:38.224Z,15.1
2016-08-16T01:05:48.219Z,15.1
2016-08-16T01:05:58.223Z,15.1
2016-08-16T01:06:08.226Z,15.1
2016-08-16T01:06:18.227Z,15.1
2016-08-16T01:06:28.231Z,15.1
2016-08-16T01:06:38.236Z,15.1
2016-08-16T01:06:47.509Z,15.1
2016-08-16T01:06:58.240Z,15.1
2016-08-16T01:07:08.247Z,15.1
2016-08-16T01:07:18.249Z,15.1
2016-08-16T01:07:28.250Z,15.1
2016-08-16T01:07:38.256Z,15.1
2016-08-16T01:07:48.256Z,15.1
2016-08-16T01:07:58.270Z,15.1
2016-08-16T01:08:08.261Z,15.1
2016-08-16T01:08:18.263Z,15.1
2016-08-16T01:08:27.540Z,15.1
2016-08-16T01:08:38.270Z,15.1
2016-08-16T01:08:48.275Z,15.1
2016-08-16T01:08:58.277Z,15.1
2016-08-16T01:09:08.285Z,15.1
2016-08-16T01:09:18.283Z,15.1
2016-08-16T01:09:28.286Z,15.1
2016-08-16T01:09:38.293Z,15.1
2016-08-16T01:09:48.294Z,15.1
2016-08-16T01:09:58.296Z,15.1
2016-08-16T01:10:08.298Z,15.1
2016-08-16T01:10:18.304Z,15.1
2016-08-16T01:10:28.306Z,15.1
2016-08-16T01:10:38.315Z,15.1
2016-08-16T01:10:48.316Z,15.1
2016-08-16T01:10:58.324Z,15.1
2016-08-16T01:11:08.321Z,15.1
2016-08-16T01:11:18.319Z,15.1
2016-08-16T01:11:28.330Z,15.1
2016-08-16T01:11:38.330Z,15.1
2016-08-16T01:11:48.334Z,15.1
2016-08-16T01:11:58.966Z,15.1
2016-08-16T01:12:08.335Z,15.1
2016-08-16T01:12:18.345Z,15.1
2016-08-16T01:12:28.341Z,15.1
2016-08-16T01:12:38.350Z,15.1
2016-08-16T01:12:48.353Z,15.1
2016-08-16T01:12:58.355Z,15.1
2016-08-16T01:13:08.356Z,15.1
2016-08-16T01:13:18.356Z,15.1
2016-08-16T01:13:28.365Z,15.1
2016-08-16T01:13:38.375Z,15.1
2016-08-16T01:13:48.369Z,15.1
2016-08-16T01:13:58.371Z,15
2016-08-16T01:14:08.379Z,15.1
2016-08-16T01:14:18.379Z,15
2016-08-16T01:14:28.389Z,15
2016-08-16T01:14:37.655Z,15
2016-08-16T01:14:48.388Z,15
2016-08-16T01:14:58.392Z,15
2016-08-16T01:15:08.393Z,15
2016-08-16T01:15:18.399Z,15
2016-08-16T01:15:27.668Z,15
2016-08-16T01:15:38.404Z,15
2016-08-16T01:15:48.405Z,15
2016-08-16T01:15:58.410Z,15
2016-08-16T01:16:07.685Z,15
2016-08-16T01:16:18.417Z,15.1
2016-08-16T01:16:28.423Z,15
2016-08-16T01:16:38.420Z,15.1
2016-08-16T01:16:48.428Z,15.1
2016-08-16T01:16:58.436Z,15.1
2016-08-16T01:17:08.432Z,15.1
2016-08-16T01:17:18.448Z,15
2016-08-16T01:17:28.438Z,15
2016-08-16T01:17:38.448Z,15
2016-08-16T01:17:48.444Z,15
2016-08-16T01:17:58.447Z,15
2016-08-16T01:18:07.720Z,15
2016-08-16T01:18:18.451Z,15
2016-08-16T01:18:28.456Z,15
2016-08-16T01:18:38.466Z,15
2016-08-16T01:18:48.464Z,15
2016-08-16T01:18:58.467Z,15
2016-08-16T01:19:08.466Z,15
2016-08-16T01:19:18.471Z,15
2016-08-16T01:19:28.473Z,15
2016-08-16T01:19:38.477Z,15
2016-08-16T01:19:48.486Z,15
2016-08-16T01:19:58.486Z,15
2016-08-16T01:20:08.489Z,15
2016-08-16T01:20:18.490Z,15
2016-08-16T01:20:27.764Z,15
2016-08-16T01:20:38.499Z,15
2016-08-16T01:20:48.501Z,15
2016-08-16T01:20:58.504Z,15
2016-08-16T01:21:08.506Z,15
2016-08-16T01:21:18.512Z,15
2016-08-16T01:21:28.518Z,15
2016-08-16T01:21:38.525Z,15
2016-08-16T01:21:48.519Z,15
2016-08-16T01:21:58.521Z,15
2016-08-16T01:22:08.525Z,15
2016-08-16T01:22:18.525Z,15
2016-08-16T01:22:28.536Z,15
2016-08-16T01:22:38.536Z,15
2016-08-16T01:22:48.542Z,15
2016-08-16T01:22:58.541Z,15
2016-08-16T01:23:08.542Z,15
2016-08-16T01:23:18.549Z,15
2016-08-16T01:23:28.552Z,15
2016-08-16T01:23:38.556Z,15
2016-08-16T01:23:48.555Z,15
2016-08-16T01:23:58.557Z,15
2016-08-16T01:24:08.560Z,15
2016-08-16T01:24:18.563Z,15
2016-08-16T01:24:28.569Z,15
2016-08-16T01:24:38.572Z,15
2016-08-16T01:24:47.852Z,15
2016-08-16T01:24:58.576Z,15
2016-08-16T01:25:08.582Z,15
2016-08-16T01:25:18.583Z,15
2016-08-16T01:25:28.588Z,14.9
2016-08-16T01:25:38.590Z,14.9
2016-08-16T01:25:48.593Z,14.9
2016-08-16T01:25:58.597Z,14.9
2016-08-16T01:26:08.599Z,15
2016-08-16T01:26:18.605Z,15
2016-08-16T01:26:28.601Z,15
2016-08-16T01:26:38.602Z,14.9
2016-08-16T01:26:48.612Z,14.9
2016-08-16T01:26:58.616Z,14.9
2016-08-16T01:27:08.617Z,14.9
2016-08-16T01:27:18.615Z,14.9
2016-08-16T01:27:28.621Z,14.9
2016-08-16T01:27:37.896Z,14.9
2016-08-16T01:27:48.637Z,14.9
2016-08-16T01:27:58.633Z,14.9
2016-08-16T01:28:08.635Z,14.9
2016-08-16T01:28:18.639Z,14.9
2016-08-16T01:28:28.642Z,14.9
2016-08-16T01:28:38.647Z,14.9
2016-08-16T01:28:48.649Z,14.9
2016-08-16T01:28:58.654Z,14.9
2016-08-16T01:29:08.654Z,14.9
2016-08-16T01:29:17.928Z,14.9
2016-08-16T01:29:28.662Z,14.9
2016-08-16T01:29:38.665Z,14.9
2016-08-16T01:29:48.666Z,14.9
2016-08-16T01:29:58.670Z,14.9
2016-08-16T01:30:08.673Z,14.9
2016-08-16T01:30:18.673Z,14.9
2016-08-16T01:30:28.679Z,14.9
2016-08-16T01:30:38.681Z,14.9
2016-08-16T01:30:48.695Z,14.9
2016-08-16T01:30:58.687Z,14.9
2016-08-16T01:31:08.693Z,14.9
2016-08-16T01:31:18.700Z,14.9
2016-08-16T01:31:28.695Z,14.9
2016-08-16T01:31:38.702Z,14.9
2016-08-16T01:31:48.704Z,14.9
2016-08-16T01:31:58.706Z,14.9
2016-08-16T01:32:08.716Z,14.9
2016-08-16T01:32:18.711Z,14.9
2016-08-16T01:32:28.712Z,14.9
2016-08-16T01:32:38.720Z,14.9
2016-08-16T01:32:48.722Z,14.9
2016-08-16T01:32:58.726Z,14.9
2016-08-16T01:33:08.732Z,14.9
2016-08-16T01:33:18.043Z,14.9
2016-08-16T01:33:28.734Z,14.9
2016-08-16T01:33:38.742Z,14.9
2016-08-16T01:33:48.010Z,14.9
2016-08-16T01:33:58.746Z,14.9
2016-08-16T01:34:08.745Z,14.9
2016-08-16T01:34:18.020Z,14.9
2016-08-16T01:34:28.752Z,14.9
2016-08-16T01:34:38.753Z,14.9
2016-08-16T01:34:48.758Z,14.9
2016-08-16T01:34:58.983Z,14.9
2016-08-16T01:35:08.025Z,14.9
2016-08-16T01:35:18.766Z,14.9
2016-08-16T01:35:28.773Z,14.9
2016-08-16T01:35:38.774Z,14.9
2016-08-16T01:35:48.781Z,14.9
2016-08-16T01:35:58.778Z,14.9
2016-08-16T01:36:08.782Z,14.9
2016-08-16T01:36:18.786Z,14.9
2016-08-16T01:36:28.793Z,14.9
2016-08-16T01:36:38.791Z,14.9
2016-08-16T01:36:48.793Z,14.9
2016-08-16T01:36:58.802Z,14.9
2016-08-16T01:37:08.801Z,14.9
2016-08-16T01:37:18.068Z,14.9
2016-08-16T01:37:28.812Z,14.9
2016-08-16T01:37:38.813Z,14.9
2016-08-16T01:37:48.817Z,14.9
2016-08-16T01:37:58.827Z,14.9
2016-08-16T01:38:08.823Z,14.9
2016-08-16T01:38:18.824Z,14.9
2016-08-16T01:38:28.829Z,14.9
2016-08-16T01:38:38.830Z,14.9
2016-08-16T01:38:48.835Z,14.9
2016-08-16T01:38:58.837Z,14.9
2016-08-16T01:39:08.839Z,14.9
2016-08-16T01:39:18.851Z,14.9
2016-08-16T01:39:28.845Z,14.9
2016-08-16T01:39:38.860Z,14.9
2016-08-16T01:39:48.123Z,14.9
2016-08-16T01:39:58.854Z,14.8
2016-08-16T01:40:08.864Z,14.9
2016-08-16T01:40:18.870Z,14.9
2016-08-16T01:40:28.867Z,14.9
2016-08-16T01:40:38.864Z,14.9
2016-08-16T01:40:48.878Z,14.9
2016-08-16T01:40:58.871Z,14.9
2016-08-16T01:41:08.874Z,14.9
2016-08-16T01:41:18.878Z,14.9
2016-08-16T01:41:28.879Z,14.8
2016-08-16T01:41:38.883Z,14.8
2016-08-16T01:41:48.896Z,14.8
2016-08-16T01:41:57.427Z,14.8
2016-08-16T01:42:08.894Z,14.8
2016-08-16T01:42:18.894Z,14.8
2016-08-16T01:42:28.900Z,14.8
2016-08-16T01:42:38.919Z,14.8
2016-08-16T01:42:48.909Z,14.8
2016-08-16T01:42:58.908Z,14.8
2016-08-16T01:43:08.913Z,14.8
2016-08-16T01:43:18.915Z,14.8
2016-08-16T01:43:28.921Z,14.8
2016-08-16T01:43:38.926Z,14.8
2016-08-16T01:43:48.927Z,14.8
2016-08-16T01:43:58.928Z,14.8
2016-08-16T01:44:08.931Z,14.8
2016-08-16T01:44:18.936Z,14.8
2016-08-16T01:44:28.936Z,14.8
2016-08-16T01:44:38.941Z,14.8
2016-08-16T01:44:48.944Z,14.8
2016-08-16T01:44:58.218Z,14.8
2016-08-16T01:45:08.949Z,14.8
2016-08-16T01:45:18.951Z,14.8
2016-08-16T01:45:28.959Z,14.8
2016-08-16T01:45:38.960Z,14.8
2016-08-16T01:45:48.221Z,14.8
2016-08-16T01:45:58.965Z,14.8
2016-08-16T01:46:08.973Z,14.8
2016-08-16T01:46:18.967Z,14.8
2016-08-16T01:46:28.973Z,14.8
2016-08-16T01:46:38.983Z,14.8
2016-08-16T01:46:48.984Z,14.8
2016-08-16T01:46:58.987Z,14.8
2016-08-16T01:47:09.003Z,14.8
2016-08-16T01:47:18.986Z,14.8
2016-08-16T01:47:29.226Z,14.8
2016-08-16T01:47:38.994Z,14.8
2016-08-16T01:47:49.001Z,14.8
2016-08-16T01:47:59.004Z,14.8
2016-08-16T01:48:09.005Z,14.8
2016-08-16T01:48:19.006Z,14.8
2016-08-16T01:48:29.007Z,14.8
2016-08-16T01:48:39.014Z,14.8
2016-08-16T01:48:49.015Z,14.8
2016-08-16T01:48:59.021Z,14.8
2016-08-16T01:49:09.021Z,14.8
2016-08-16T01:49:19.024Z,14.8
2016-08-16T01:49:29.026Z,14.8
2016-08-16T01:49:39.031Z,14.8
2016-08-16T01:49:49.035Z,14.8
2016-08-16T01:49:59.040Z,14.8
2016-08-16T01:50:09.044Z,14.8
2016-08-16T01:50:19.046Z,14.8
2016-08-16T01:50:29.048Z,14.8
2016-08-16T01:50:39.055Z,14.8
2016-08-16T01:50:49.051Z,14.8
2016-08-16T01:50:59.057Z,14.8
2016-08-16T01:51:09.058Z,14.8
2016-08-16T01:51:19.060Z,14.8
2016-08-16T01:51:29.063Z,14.8
2016-08-16T01:51:39.073Z,14.8
2016-08-16T01:51:49.072Z,14.8
2016-08-16T01:51:59.078Z,14.8
2016-08-16T01:52:08.344Z,14.8
2016-08-16T01:52:19.084Z,14.8
2016-08-16T01:52:29.084Z,14.8
2016-08-16T01:52:39.086Z,14.8
2016-08-16T01:52:49.090Z,14.8
2016-08-16T01:52:59.091Z,14.7
2016-08-16T01:53:09.103Z,14.7
2016-08-16T01:53:19.097Z,14.7
2016-08-16T01:53:29.107Z,14.7
2016-08-16T01:53:39.107Z,14.7
2016-08-16T01:53:49.109Z,14.7
2016-08-16T01:53:59.111Z,14.7
2016-08-16T01:54:09.114Z,14.7
2016-08-16T01:54:19.117Z,14.7
2016-08-16T01:54:29.121Z,14.7
2016-08-16T01:54:39.130Z,14.7
2016-08-16T01:54:48.398Z,14.7
2016-08-16T01:54:59.133Z,14.7
2016-08-16T01:55:09.134Z,14.7
2016-08-16T01:55:19.134Z,14.7
2016-08-16T01:55:29.143Z,14.7
2016-08-16T01:55:39.256Z,14.7
2016-08-16T01:55:49.150Z,14.7
2016-08-16T01:55:59.144Z,14.7
2016-08-16T01:56:09.151Z,14.7
2016-08-16T01:56:18.424Z,14.7
2016-08-16T01:56:29.164Z,14.7
2016-08-16T01:56:39.158Z,14.7
2016-08-16T01:56:49.159Z,14.7
2016-08-16T01:56:59.169Z,14.7
2016-08-16T01:57:09.166Z,14.7
2016-08-16T01:57:18.451Z,14.7
2016-08-16T01:57:29.176Z,14.7
2016-08-16T01:57:39.195Z,14.7
2016-08-16T01:57:48.453Z,14.7
2016-08-16T01:57:59.184Z,14.7
2016-08-16T01:58:09.188Z,14.7
2016-08-16T01:58:19.190Z,14.7
2016-08-16T01:58:29.200Z,14.7
2016-08-16T01:58:39.196Z,14.7
2016-08-16T01:58:49.201Z,14.7
2016-08-16T01:58:59.203Z,14.7
2016-08-16T01:59:09.207Z,14.7
2016-08-16T01:59:19.212Z,14.7
2016-08-16T01:59:28.477Z,14.7
2016-08-16T01:59:39.221Z,14.7
2016-08-16T01:59:49.219Z,14.7
2016-08-16T01:59:59.220Z,14.7
2016-08-16T02:00:09.225Z,14.7
2016-08-16T02:00:19.229Z,14.7
2016-08-16T02:00:28.495Z,14.7
2016-08-16T02:00:39.236Z,14.7
2016-08-16T02:00:49.238Z,14.7
2016-08-16T02:00:59.239Z,14.7
2016-08-16T02:01:09.243Z,14.7
2016-08-16T02:01:19.247Z,14.7
2016-08-16T02:01:29.257Z,14.7
2016-08-16T02:01:39.252Z,14.7
2016-08-16T02:01:49.252Z,14.7
2016-08-16T02:01:59.260Z,14.7
2016-08-16T02:02:09.257Z,14.7
2016-08-16T02:02:19.263Z,14.7
2016-08-16T02:02:29.268Z,14.7
2016-08-16T02:02:39.274Z,14.7
2016-08-16T02:02:49.274Z,14.7
2016-08-16T02:02:59.274Z,14.7
2016-08-16T02:03:09.278Z,14.7
2016-08-16T02:03:18.553Z,14.7
2016-08-16T02:03:28.556Z,14.7
2016-08-16T02:03:39.286Z,14.7
2016-08-16T02:03:49.297Z,14.7
2016-08-16T02:03:59.299Z,14.7
2016-08-16T02:04:09.296Z,14.7
2016-08-16T02:04:19.302Z,14.7
2016-08-16T02:04:28.580Z,14.7
2016-08-16T02:04:39.309Z,14.7
2016-08-16T02:04:49.308Z,14.7
2016-08-16T02:04:59.319Z,14.7
2016-08-16T02:05:09.317Z,14.7
2016-08-16T02:05:19.324Z,14.7
2016-08-16T02:05:29.322Z,14.7
2016-08-16T02:05:39.325Z,14.7
2016-08-16T02:05:49.331Z,14.7
2016-08-16T02:05:59.332Z,14.7
2016-08-16T02:06:09.338Z,14.7
2016-08-16T02:06:18.604Z,14.7
2016-08-16T02:06:29.343Z,14.7
2016-08-16T02:06:39.344Z,14.7
2016-08-16T02:06:49.343Z,14.7
2016-08-16T02:06:59.351Z,14.7
2016-08-16T02:07:09.353Z,14.7
2016-08-16T02:07:19.357Z,14.7
2016-08-16T02:07:29.355Z,14.7
2016-08-16T02:07:39.364Z,14.7
2016-08-16T02:07:49.363Z,14.7
2016-08-16T02:07:59.366Z,14.7
2016-08-16T02:08:09.371Z,14.7
2016-08-16T02:08:19.375Z,14.7
2016-08-16T02:08:29.375Z,14.7
2016-08-16T02:08:39.380Z,14.7
2016-08-16T02:08:49.385Z,14.7
2016-08-16T02:08:59.395Z,14.7
2016-08-16T02:09:09.388Z,14.7
2016-08-16T02:09:19.392Z,14.7
2016-08-16T02:09:29.396Z,14.7
2016-08-16T02:09:39.399Z,14.7
2016-08-16T02:09:49.401Z,14.7
2016-08-16T02:09:59.411Z,14.7
2016-08-16T02:10:09.409Z,14.7
2016-08-16T02:10:19.411Z,14.7
2016-08-16T02:10:29.416Z,14.7
2016-08-16T02:10:39.419Z,14.7
2016-08-16T02:10:49.426Z,14.7
2016-08-16T02:10:59.424Z,14.7
2016-08-16T02:11:09.430Z,14.7
2016-08-16T02:11:19.431Z,14.7
2016-08-16T02:11:29.432Z,14.7
2016-08-16T02:11:38.704Z,14.7
2016-08-16T02:11:49.439Z,14.7
2016-08-16T02:11:59.443Z,14.7
2016-08-16T02:12:09.446Z,14.7
2016-08-16T02:12:19.450Z,14.7
2016-08-16T02:12:29.452Z,14.7
2016-08-16T02:12:39.455Z,14.7
2016-08-16T02:12:49.458Z,14.7
2016-08-16T02:12:58.725Z,14.7
2016-08-16T02:13:09.465Z,14.7
2016-08-16T02:13:19.469Z,14.7
2016-08-16T02:13:29.474Z,14.7
2016-08-16T02:13:39.469Z,14.7
2016-08-16T02:13:49.480Z,14.7